Flight Track Log - Related Links

Times and Time Zones

All times are in EDT time to prevent confusion due to time zone crossing. See the UAL3773 flight status page for this flight to view local times or setup timezone preferences in your user account.

Time Position Orientation Groundspeed Altitude Reporting Facility
EDT Latitude Longitude Course Direction KTS MPH feet Rate Location/Type
Tue 03:35:48 PM 38.9333 -77.5167 256° West 183 211 1,500  Level Potomac TRACON
Tue 03:36:48 PM 38.9167 -77.6000 256° West 254 292 3,600 2,215 Climbing Potomac TRACON
Tue 03:37:58 PM 38.8969 -77.7042 256° West 248 285 6,300 2,538 Climbing Washington Center
Tue 03:38:58 PM 38.8644 -77.7778 240° Southwest 259 298 9,100 2,150 Climbing Washington Center
Tue 03:39:58 PM 38.8583 -77.8789 266° West 279 321 10,600 1,950 Climbing Washington Center
Tue 03:40:58 PM 38.8581 -77.9961 270° West 307 353 13,000 2,200 Climbing Washington Center
Tue 03:41:58 PM 38.8558 -78.1133 269° West 327 376 15,000 1,800 Climbing Washington Center
Tue 03:42:58 PM 38.8528 -78.2467 268° West 338 389 16,600 1,650 Climbing Washington Center
Tue 03:43:58 PM 38.8522 -78.3667 270° West 354 407 18,300 1,850 Climbing Washington Center
Tue 03:44:58 PM 38.8511 -78.4972 269° West 365 420 20,300 1,850 Climbing Washington Center
Tue 03:45:58 PM 38.8500 -78.6278 269° West 376 433 22,000 1,350 Climbing Washington Center
Tue 03:46:58 PM 38.8486 -78.7689 269° West 383 441 23,000 1,500 Climbing Washington Center
Tue 03:47:58 PM 38.8447 -78.9100 268° West 389 448 25,000 2,050 Climbing Washington Center
Tue 03:48:58 PM 38.8453 -79.0408 270° West 389 448 27,100 1,950 Climbing Washington Center
Tue 03:49:58 PM 38.8414 -79.1711 268° West 383 441 28,900 1,450 Climbing Washington Center
Tue 03:50:58 PM 38.8397 -79.2989 269° West 377 434 30,000 1,050 Climbing Washington Center
Tue 03:51:58 PM 38.8394 -79.4322 270° West 377 434 31,000 1,050 Climbing Washington Center
Tue 03:52:58 PM 38.8369 -79.5786 269° West 372 428 32,100 1,050 Climbing Washington Center
Tue 03:53:58 PM 38.8325 -79.7117 268° West 377 434 33,100 950 Climbing Washington Center
Tue 03:54:58 PM 38.8300 -79.8422 269° West 377 434 34,000 344 Climbing Washington Center
Tue 03:56:35 PM 38.8222 -80.0447 267° West 374 430 34,000  Level Indianapolis Center
Tue 03:57:37 PM 38.8183 -80.1772 268° West 372 428 34,000 435 Level Indianapolis Center
Tue 03:58:39 PM 38.8142 -80.3103 268° West 373 429 34,900 484 Climbing Indianapolis Center
Tue 03:59:41 PM 38.8108 -80.4419 268° West 371 427 35,000 48 Climbing Indianapolis Center
Tue 04:00:43 PM 38.8075 -80.5792 268° West 382 440 35,000 435 Level Indianapolis Center
Tue 04:01:45 PM 38.8017 -80.7450 267° West 387 445 35,900 484 Climbing Indianapolis Center
Tue 04:02:47 PM 38.7978 -80.8775 268° West 374 430 36,000 48 Climbing Indianapolis Center
Tue 04:03:49 PM 38.7933 -81.0092 268° West 369 425 36,000  Level Indianapolis Center
Tue 04:04:51 PM 38.7889 -81.1408 268° West 370 426 36,000  Level Indianapolis Center
Tue 04:05:53 PM 38.7847 -81.2717 268° West 370 426 36,000  Level Indianapolis Center
Tue 04:06:55 PM 38.7797 -81.4039 267° West 374 430 36,000  Level Indianapolis Center
Tue 04:07:57 PM 38.7742 -81.5622 267° West 379 436 36,000  Level Indianapolis Center
Tue 04:09:00 PM 38.7689 -81.6939 267° West 383 441 36,000  Level Indianapolis Center
Tue 04:10:02 PM 38.7631 -81.8292 267° West 384 442 36,000  Level Indianapolis Center
Tue 04:11:04 PM 38.7575 -81.9658 267° West 385 443 36,000  Level Indianapolis Center
Tue 04:12:06 PM 38.7511 -82.1311 267° West 384 442 36,000  Level Indianapolis Center
Tue 04:13:08 PM 38.7458 -82.2597 267° West 369 425 36,000  Level Indianapolis Center
Tue 04:14:10 PM 38.7408 -82.3942 267° West 375 432 36,000  Level Indianapolis Center
Tue 04:15:12 PM 38.7361 -82.5281 267° West 380 437 36,000  Level Indianapolis Center
Tue 04:16:14 PM 38.7294 -82.6661 267° West 385 443 36,000  Level Indianapolis Center
Tue 04:17:16 PM 38.7286 -82.8039 270° West 388 447 36,000  Level Indianapolis Center
Tue 04:18:18 PM 38.7333 -82.9397 273° West 384 442 36,000  Level Indianapolis Center
Tue 04:19:20 PM 38.7356 -83.1028 271° West 381 438 36,000  Level Indianapolis Center
Tue 04:20:22 PM 38.7392 -83.2353 272° West 380 437 36,000  Level Indianapolis Center
Tue 04:21:24 PM 38.7411 -83.3719 271° West 382 440 36,000  Level Indianapolis Center
Tue 04:22:26 PM 38.7439 -83.5086 272° West 382 440 36,000  Level Indianapolis Center
Tue 04:23:28 PM 38.7453 -83.6469 271° West 384 442 36,000  Level Indianapolis Center
Tue 04:24:30 PM 38.7481 -83.7853 272° West 384 442 36,000  Level Indianapolis Center
Tue 04:25:32 PM 38.7503 -83.9469 271° West 385 443 36,000  Level Indianapolis Center
Tue 04:26:34 PM 38.7528 -84.0875 271° West 389 448 36,000  Level Indianapolis Center
Tue 04:27:36 PM 38.7542 -84.2261 271° West 386 444 36,000  Level Indianapolis Center
Tue 04:28:38 PM 38.7556 -84.3661 271° West 389 448 36,000  Level Indianapolis Center
Tue 04:29:40 PM 38.7572 -84.5058 271° West 389 448 36,000  Level Indianapolis Center
Tue 04:30:43 PM 38.7578 -84.6403 270° West 389 448 36,000  Level Indianapolis Center
Tue 04:31:45 PM 38.7589 -84.8042 271° West 391 450 36,000  Level Indianapolis Center
Tue 04:32:47 PM 38.7600 -84.9442 271° West 391 450 36,000  Level Indianapolis Center
Tue 04:33:49 PM 38.7611 -85.0839 271° West 390 449 36,000  Level Indianapolis Center
Tue 04:34:51 PM 38.7619 -85.2233 270° West 389 448 36,000  Level Indianapolis Center
Tue 04:35:53 PM 38.7614 -85.3650 270° West 393 452 36,000  Level Indianapolis Center
Tue 04:36:55 PM 38.7614 -85.5053 270° West 392 451 36,000  Level Indianapolis Center
Tue 04:37:57 PM 38.7617 -85.6475 270° West 396 456 36,000  Level Indianapolis Center
Tue 04:38:59 PM 38.7614 -85.8139 270° West 396 456 36,000  Level Indianapolis Center
Tue 04:40:01 PM 38.7614 -85.9483 270° West 396 456 36,000  Level Indianapolis Center
Tue 04:41:03 PM 38.7606 -86.0906 270° West 399 459 36,000  Level Indianapolis Center
Tue 04:42:05 PM 38.7606 -86.2322 270° West 397 457 36,000  Level Indianapolis Center
Tue 04:43:07 PM 38.7594 -86.3744 269° West 399 459 36,000  Level Indianapolis Center
Tue 04:44:09 PM 38.7628 -86.5433 272° West 395 455 36,000  Level Indianapolis Center
Tue 04:45:11 PM 38.7697 -86.6856 274° West 400 460 36,000  Level Indianapolis Center
Tue 04:46:13 PM 38.7742 -86.8272 272° West 399 459 36,000  Level Indianapolis Center
Tue 04:47:15 PM 38.7803 -86.9683 273° West 398 458 36,000  Level Indianapolis Center
Tue 04:48:17 PM 38.7856 -87.1097 273° West 399 459 36,000  Level Indianapolis Center
Tue 04:49:19 PM 38.7911 -87.2514 273° West 399 459 36,000  Level Indianapolis Center
Tue 04:50:21 PM 38.7964 -87.4225 272° West 402 463 36,000  Level Indianapolis Center
Tue 04:51:23 PM 38.8019 -87.5642 273° West 400 460 36,000  Level Indianapolis Center
Tue 04:52:25 PM 38.8058 -87.7064 272° West 400 460 36,000  Level Indianapolis Center
Tue 04:53:28 PM 38.8100 -87.8486 272° West 400 460 36,000  Level Indianapolis Center
Tue 04:54:31 PM 38.8142 -87.9936 272° West 403 464 36,000  Level Kansas City Center
Tue 04:56:34 PM 38.8233 -88.3094 272° West 403 464 36,000  Level Indianapolis Center
Tue 04:57:37 PM 38.8256 -88.4547 271° West 404 465 36,000  Level Kansas City Center
Tue 04:58:38 PM 38.8297 -88.5994 272° West 404 465 36,000  Level Kansas City Center
Tue 04:59:41 PM 38.8331 -88.7339 272° West 405 466 36,000  Level Kansas City Center
Tue 05:00:42 PM 38.8364 -88.8772 272° West 404 465 36,000  Level Kansas City Center
Tue 05:01:46 PM 38.8397 -89.0469 271° West 408 470 36,000  Level Kansas City Center
Tue 05:02:47 PM 38.8428 -89.2028 271° West 409 471 36,000  Level Kansas City Center
Tue 05:03:48 PM 38.8461 -89.3478 272° West 410 472 36,000  Level Kansas City Center
Tue 05:04:49 PM 38.8753 -89.5006 284° West 414 476 36,000  Level Kansas City Center
Tue 05:05:53 PM 38.9139 -89.6403 290° West 418 481 36,000  Level Kansas City Center
Tue 05:06:55 PM 38.9550 -89.7903 289° West 417 480 36,000  Level Kansas City Center
Tue 05:07:56 PM 38.9925 -89.9278 289° West 412 474 36,000 -484 Level Kansas City Center
Tue 05:08:59 PM 39.0294 -90.0644 289° West 409 471 35,000 -484 Descending Kansas City Center
Tue 05:10:00 PM 39.0664 -90.2008 289° West 407 468 35,000  Level Kansas City Center
Tue 05:11:04 PM 39.1025 -90.3364 289° West 406 467 35,000  Level Kansas City Center
Tue 05:12:06 PM 39.1403 -90.4719 290° West 406 467 35,000  Level Kansas City Center
Tue 05:13:06 PM 39.1836 -90.6339 289° West 404 465 35,000  Level Kansas City Center
Tue 05:14:07 PM 39.2189 -90.7694 289° West 403 464 35,000  Level Kansas City Center
Tue 05:15:11 PM 39.2533 -90.9053 288° West 401 461 35,000  Level Kansas City Center
Tue 05:16:13 PM 39.2886 -91.0411 289° West 401 461 35,000  Level Kansas City Center
Tue 05:17:14 PM 39.3247 -91.1761 289° West 401 461 35,000  Level Kansas City Center
Tue 05:18:15 PM 39.3669 -91.3386 289° West 400 460 35,000  Level Kansas City Center
Tue 05:19:19 PM 39.4017 -91.4744 288° West 399 459 35,000  Level Kansas City Center
Tue 05:20:20 PM 39.4361 -91.6094 288° West 399 459 35,000  Level Kansas City Center
Tue 05:21:23 PM 39.4714 -91.7431 289° West 396 456 35,000  Level Kansas City Center
Tue 05:22:26 PM 39.5050 -91.8781 288° West 396 456 35,000  Level Kansas City Center
Tue 05:23:26 PM 39.5381 -92.0133 288° West 396 456 35,000  Level Kansas City Center
Tue 05:24:28 PM 39.5778 -92.1717 288° West 390 449 35,000 -238 Level Kansas City Center
Tue 05:25:32 PM 39.6114 -92.3053 288° West 391 450 34,500 -732 Descending Kansas City Center
Tue 05:26:31 PM 39.6433 -92.4342 288° West 383 441 33,500 -738 Descending Kansas City Center
Tue 05:27:34 PM 39.6533 -92.5669 276° West 374 430 33,000 -624 Descending Kansas City Center
Tue 05:28:36 PM 39.6508 -92.7031 269° West 375 432 32,200 -484 Descending Kansas City Center
Tue 05:29:38 PM 39.6494 -92.8450 269° West 387 445 32,000 -541 Descending Kansas City Center
Tue 05:30:38 PM 39.6469 -92.9892 269° West 395 455 31,100 -1,721 Descending Kansas City Center
Tue 05:31:40 PM 39.6469 -93.1500 270° West 376 433 28,500 -2,429 Descending Kansas City Center
Tue 05:32:44 PM 39.6428 -93.2714 267° West 347 399 26,000 -2,323 Descending Kansas City Center
Tue 05:33:44 PM 39.6394 -93.4017 268° West 357 411 23,700 -2,081 Descending Kansas City Center
Tue 05:34:48 PM 39.6389 -93.5244 270° West 352 405 21,700 -1,905 Descending Kansas City Center
Tue 05:35:50 PM 39.6367 -93.6428 269° West 333 383 19,700 -1,984 Descending Kansas City Center
Tue 05:36:52 PM 39.6317 -93.7814 267° West 327 376 17,600 -1,770 Descending Kansas City Center
Tue 05:37:52 PM 39.6225 -93.8933 264° West 329 379 16,100 -1,475 Descending Kansas City Center
Tue 05:38:54 PM 39.5739 -93.9878 236° Southwest 322 371 14,600 -1,248 Descending Kansas City Center
Tue 05:39:57 PM 39.5217 -94.0906 237° Southwest 307 353 13,500 -1,000 Descending Kansas City Center
Tue 05:41:00 PM 39.4750 -94.1828 237° Southwest 317 365 12,500 -732 Descending Kansas City Center
Tue 05:42:00 PM 39.4189 -94.2933 237° Southwest 329 379 12,000 -248 Descending Kansas City Center
Tue 05:43:01 PM 39.3717 -94.3867 237° Southwest 324 373 12,000  Level Kansas City Center
Tue 05:44:04 PM 39.3236 -94.4803 236° Southwest 266 306 12,000 -677 Level Kansas City Center
Tue 05:45:05 PM 39.2897 -94.5475 237° Southwest 234 269 10,600 -1,536 Descending Kansas City Center
Tue 05:46:09 PM 39.2428 -94.6033 223° Southwest 219 252 8,800 -1,737 Descending Kansas City Center
Tue 05:48:15 PM 39.1000 -94.6333 189° South 246 283 5,100 -1,272 Descending Kansas City TRACON
Tue 05:49:13 PM 39.0867 -94.7056 257° West 229 264 4,900 -744 Descending Kansas City Center
Tue 05:50:16 PM 39.1044 -94.7653 291° West 211 243 3,600 -864 Descending Kansas City Center
Tue 05:51:18 PM 39.1619 -94.7692 357° North 184 212 3,100 -293 Descending Kansas City Center
Tue 05:52:19 PM 39.2086 -94.7544 14° North 180 207 3,000 -435 Descending Kansas City Center
Tue 05:53:22 PM 39.2447 -94.7442 12° North 121 139 2,200 -726 Descending Kansas City Center
Tue 05:54:23 PM 39.2756 -94.7344 14° North 119 137 1,500 -590 Descending Kansas City Center
Tue 05:55:24 PM 39.3064 -94.7253 13° North 95 109 1,000 -492 Descending Kansas City Center

Login

Don't have an account? Register now (free) for customized features, flight alerts, and more!